Flight Track Log - Related Links

Times and Time Zones

All times are in EDT time to prevent confusion due to time zone crossing. See the VH-SPN flight status page for this flight to view local times or setup timezone preferences in your user account.

Time Position Orientation Groundspeed Altitude Reporting Facility
EDT Latitude Longitude Course Direction KTS MPH feet Rate Location/Type
Thu 09:59:16 PM -32.1495 116.1056 89° East 104 120 2,900  Level Aus ATC (RADAR)
Thu 10:00:16 PM -32.1490 116.1409 89° East 104 120 3,300 417 Climbing Aus ATC (RADAR)
Thu 10:01:11 PM -32.1304 116.1612 43° Northeast 101 116 3,700 200 Climbing Aus ATC (RADAR)
Thu 10:01:46 PM -32.1149 116.1717 30° Northeast 111 128 3,600 -67 Descending Aus ATC (RADAR)
Thu 10:02:41 PM -32.0878 116.1888 28° Northeast 124 143 3,600 -63 Level Aus ATC (RADAR)
Thu 10:03:21 PM -32.0662 116.1992 22° Northeast 127 146 3,500 63 Descending Aus ATC (RADAR)
Thu 10:04:16 PM -32.0364 116.2088 15° North 120 138 3,700 89 Climbing Aus ATC (RADAR)
Thu 10:05:36 PM -31.9976 116.2331 28° Northeast 120 138 3,700 -52 Level Aus ATC (RADAR)
Thu 10:06:11 PM -31.9839 116.2495 46° Northeast 120 138 3,600 -118 Descending Aus ATC (RADAR)
Thu 10:06:27 PM -31.9785 116.2576 52° Northeast 122 140 3,600 118 Level Aus ATC (RADAR)
Thu 10:07:02 PM -31.9658 116.2757 51° Northeast 121 139 3,700  Climbing Aus ATC (RADAR)
Thu 10:07:58 PM -31.9451 116.3046 50° Northeast 125 144 3,600 -81 Descending Aus ATC (RADAR)
Thu 10:08:16 PM -31.9370 116.3143 45° Northeast 125 144 3,600  Level Aus ATC (RADAR)
Thu 10:10:23 PM -31.8662 116.3197 North 3,500 -30 Descending Aus ATC (Calculated)
Thu 10:11:35 PM -31.8308 116.3223 North 3,500  Level Aus ATC (Calculated)
Thu 10:12:08 PM -31.7954 116.3250 158° South -6,364 Descending Aus ATC (Calculated)
Thu 10:14:00 PM -31.8268 116.3400 158° South  Level FlightAware Approximate
Thu 10:15:00 PM -31.8436 116.3480 158° South  Level FlightAware Approximate
Thu 10:16:00 PM -31.8604 116.3561 158° South  Level FlightAware Approximate
Thu 10:17:00 PM -31.8568 116.3544 338° Northwest  Level FlightAware Approximate
Thu 10:18:00 PM -31.8400 116.3464 338° Northwest  Level FlightAware Approximate
Thu 10:19:00 PM -31.8232 116.3383 338° Northwest  Level FlightAware Approximate
Thu 10:20:00 PM -31.8064 116.3303 338° Northwest  Level FlightAware Approximate
Thu 10:20:34 PM -31.7107 116.5049 241° Southwest  Level Aus ATC (Calculated)
Thu 10:21:00 PM -31.7924 116.3314 61° Northeast  Level FlightAware Approximate
Thu 10:22:00 PM -31.7836 116.3501 61° Northeast  Level FlightAware Approximate
Thu 10:22:44 PM -31.7107 116.5049 61° Northeast  Level Aus ATC (Calculated)
Thu 10:23:00 PM -31.6893 116.5502 61° Northeast  Level FlightAware Approximate
Thu 10:24:00 PM -31.6995 116.5285 61° Northeast  Level FlightAware Approximate
Thu 10:25:00 PM -31.6907 116.5472 61° Northeast  Level FlightAware Approximate
Thu 10:26:00 PM -31.6819 116.5658 61° Northeast  Level FlightAware Approximate
Thu 10:27:00 PM -31.6731 116.5844 61° Northeast  Level FlightAware Approximate
Thu 10:28:00 PM -31.6643 116.6031 61° Northeast  Level FlightAware Approximate
Thu 10:29:00 PM -31.6555 116.6217 61° Northeast  Level FlightAware Approximate
Thu 10:29:08 PM -31.6257 116.6845 241° Southwest  Level Aus ATC (Calculated)
Thu 10:30:00 PM -31.6467 116.6403 61° Northeast  Level FlightAware Approximate
Thu 10:31:00 PM -31.6246 116.6833 North  Level Estimated
Thu 10:32:00 PM -31.6246 116.6833 135° Southeast  Level Estimated
Thu 10:33:00 PM -31.6246 116.6833 135° Southeast  Level Estimated
Thu 10:34:00 PM -31.6246 116.6833 135° Southeast  Level Estimated
Thu 10:35:00 PM -31.6246 116.6833 135° Southeast  Level Estimated
Thu 10:36:00 PM -31.6246 116.6833 135° Southeast  Level Estimated
Thu 10:37:00 PM -31.6246 116.6833 135° Southeast  Level Estimated
Thu 10:38:00 PM -31.6257 116.6845 61° Northeast  Level FlightAware Approximate

Login

Don't have an account? Register now (free) for customized features, flight alerts, and more!